Al Jahrah, Kuwait
Current Conditions -  °F | °C
As of 5:55 PM on Sunday 21 Dec 2014 (Local Time) from KQGV Reporting Station
Scattered Clouds Scattered Clouds  
Wind Chill: 63°   Ceiling: Unl
Heat Index: 63°   Visibility: 6mi
Dew Point: 43°   Wind: 13mph
Humidity: 48%   Direction: 340°NNW
Pressure: 30.02"   Gusts: 18mph
Location:  29.33°N, 47.67°E
Report Text: KQGV 211455Z 34011G16KT 9999 FEW100 SCT130 17/06 A3002 RMK SLPNO QNH1017 PA +373 53018
Loading
Personal Weather Stations






























Interactive Weather Map New forecast layout! Learn more

10-Day Weather Forecast

Advertisements
Track Severe Weather on mobile